createdAt,value
2018-04-22T00:03:40.289Z,59.30
2018-04-22T00:08:31.821Z,59.90
2018-04-22T00:13:23.393Z,59.70
2018-04-22T00:18:15.651Z,59.90
2018-04-22T00:23:07.899Z,60.10
2018-04-22T00:28:00.138Z,60.20
2018-04-22T00:32:51.668Z,60.20
2018-04-22T00:37:43.170Z,60.10
2018-04-22T00:42:34.703Z,60.40
2018-04-22T00:47:26.217Z,60.60
2018-04-22T00:52:17.702Z,60.60
2018-04-22T00:57:09.206Z,60.60
2018-04-22T01:02:00.692Z,60.60
2018-04-22T01:06:52.915Z,60.70
2018-04-22T01:11:44.419Z,60.60
2018-04-22T01:16:35.958Z,60.50
2018-04-22T01:21:27.465Z,60.30
2018-04-22T01:26:18.960Z,60.10
2018-04-22T01:31:10.460Z,59.80
2018-04-22T01:36:02.017Z,59.70
2018-04-22T01:40:53.889Z,59.80
2018-04-22T01:45:46.153Z,60.00
2018-04-22T01:50:38.385Z,60.20
2018-04-22T01:55:29.922Z,60.10
2018-04-22T02:00:22.176Z,60.80
2018-04-22T02:05:14.464Z,61.00
2018-04-22T02:10:05.960Z,60.90
2018-04-22T02:14:58.241Z,61.30
2018-04-22T02:19:49.737Z,61.10
2018-04-22T02:24:41.224Z,61.60
2018-04-22T02:29:32.761Z,61.90
2018-04-22T02:34:24.312Z,62.10
2018-04-22T02:39:15.849Z,62.30
2018-04-22T02:44:07.365Z,62.70
2018-04-22T02:48:58.905Z,62.80
2018-04-22T02:53:50.409Z,62.80
2018-04-22T02:58:41.906Z,62.90
2018-04-22T03:03:34.167Z,63.50
2018-04-22T03:08:26.403Z,63.60
2018-04-22T03:13:17.907Z,63.50
2018-04-22T03:18:09.413Z,63.90
2018-04-22T03:23:00.918Z,63.90
2018-04-22T03:27:53.173Z,65.30
2018-04-22T03:32:45.426Z,64.60
2018-04-22T03:37:37.669Z,64.90
2018-04-22T03:42:29.912Z,65.40
2018-04-22T03:47:22.158Z,65.40
2018-04-22T03:52:13.653Z,65.30
2018-04-22T03:57:05.171Z,65.50
2018-04-22T04:01:56.671Z,65.80
2018-04-22T04:06:48.915Z,66.00
2018-04-22T04:11:41.162Z,66.00
2018-04-22T04:16:33.405Z,66.20
2018-04-22T04:21:43.411Z,66.20
2018-04-22T04:27:07.168Z,66.30
2018-04-22T04:31:58.669Z,66.40
2018-04-22T04:36:50.169Z,66.20
2018-04-22T04:41:41.679Z,66.10
2018-04-22T04:46:33.929Z,65.80
2018-04-22T04:51:26.236Z,65.80
2018-04-22T04:56:17.750Z,65.80
2018-04-22T05:01:09.237Z,65.50
2018-04-22T05:06:00.724Z,65.20
2018-04-22T05:10:52.288Z,65.60
2018-04-22T05:15:43.803Z,64.40
2018-04-22T05:20:35.313Z,64.30
2018-04-22T05:25:26.823Z,64.20
2018-04-22T05:30:19.088Z,63.80
2018-04-22T05:35:10.583Z,63.80
2018-04-22T05:40:02.096Z,63.00
2018-04-22T05:44:53.591Z,59.80
2018-04-22T05:49:45.099Z,57.60
2018-04-22T05:54:37.325Z,54.40
2018-04-22T05:59:28.838Z,54.30
2018-04-22T06:04:20.453Z,53.60
2018-04-22T06:09:11.968Z,52.90
2018-04-22T06:14:04.227Z,51.40
2018-04-22T06:18:55.721Z,51.40
2018-04-22T06:23:47.259Z,50.50
2018-04-22T06:28:38.761Z,49.80
2018-04-22T06:33:30.251Z,48.50
2018-04-22T06:38:22.518Z,46.40
2018-04-22T06:43:14.031Z,46.30
2018-04-22T06:48:06.271Z,43.70
2018-04-22T06:52:58.526Z,44.40
2018-04-22T06:57:51.802Z,44.60
2018-04-22T07:02:44.065Z,44.60
2018-04-22T07:07:36.310Z,45.50
2018-04-22T07:12:28.545Z,44.40
2018-04-22T07:17:20.051Z,44.30
2018-04-22T07:22:11.556Z,44.00
2018-04-22T07:27:03.071Z,42.60
2018-04-22T07:31:54.577Z,42.40
2018-04-22T07:36:46.070Z,43.40
2018-04-22T07:41:37.636Z,42.40
2018-04-22T07:46:29.123Z,39.20
2018-04-22T07:51:20.657Z,38.80
2018-04-22T07:56:12.164Z,38.10
2018-04-22T08:01:04.415Z,38.00
2018-04-22T08:05:56.691Z,36.70
2018-04-22T08:10:48.191Z,36.60
2018-04-22T08:15:40.471Z,35.30
2018-04-22T08:20:31.991Z,35.20
2018-04-22T08:25:24.252Z,35.40
2018-04-22T08:30:15.732Z,35.30
2018-04-22T08:35:07.230Z,36.20
2018-04-22T08:39:58.756Z,35.50
2018-04-22T08:44:50.255Z,34.60
2018-04-22T08:49:42.508Z,32.20
2018-04-22T08:54:34.822Z,32.30
2018-04-22T08:59:26.361Z,32.20
2018-04-22T09:04:17.889Z,31.80
2018-04-22T09:09:09.396Z,31.00
2018-04-22T09:14:00.934Z,30.80
2018-04-22T09:18:52.475Z,31.40
2018-04-22T09:23:43.963Z,30.80
2018-04-22T09:28:36.224Z,29.70
2018-04-22T09:33:28.471Z,28.80
2018-04-22T09:38:20.759Z,29.40
2018-04-22T09:43:12.266Z,29.30
2018-04-22T09:48:03.804Z,28.20
2018-04-22T09:52:56.053Z,28.80
2018-04-22T09:57:47.599Z,28.80
2018-04-22T10:02:39.117Z,27.80
2018-04-22T10:07:31.517Z,28.90
2018-04-22T10:12:23.025Z,28.90
2018-04-22T10:17:14.918Z,31.50
2018-04-22T10:22:06.439Z,31.40
2018-04-22T10:26:58.043Z,32.40
2018-04-22T10:31:49.547Z,33.40
2018-04-22T10:36:41.802Z,29.40
2018-04-22T10:41:34.053Z,28.80
2018-04-22T10:46:27.312Z,29.20
2018-04-22T10:51:19.010Z,29.10
2018-04-22T10:56:11.368Z,29.90
2018-04-22T11:01:02.946Z,30.40
2018-04-22T11:05:55.181Z,32.20
2018-04-22T11:10:46.681Z,32.20
2018-04-22T11:15:38.153Z,32.10
2018-04-22T11:20:29.665Z,32.30
2018-04-22T11:25:21.899Z,32.40
2018-04-22T11:30:13.382Z,32.30
2018-04-22T11:35:06.409Z,33.20
2018-04-22T11:39:57.892Z,33.10
2018-04-22T11:44:50.161Z,32.00
2018-04-22T11:49:41.655Z,31.90
2018-04-22T11:54:33.160Z,31.70
2018-04-22T11:59:24.790Z,33.00
2018-04-22T12:04:16.301Z,32.70
2018-04-22T12:09:07.819Z,33.80
2018-04-22T12:14:00.971Z,34.10
2018-04-22T12:18:52.610Z,34.00
2018-04-22T12:23:44.860Z,33.10
2018-04-22T12:28:37.106Z,33.80
2018-04-22T12:33:29.137Z,33.60
2018-04-22T12:38:20.784Z,33.20
2018-04-22T12:43:13.159Z,33.40
2018-04-22T12:48:04.655Z,33.10
2018-04-22T12:52:56.161Z,33.20
2018-04-22T12:57:47.731Z,33.60
2018-04-22T13:02:39.262Z,34.20
2018-04-22T13:07:30.751Z,35.90
2018-04-22T13:12:22.285Z,38.30
2018-04-22T13:17:13.817Z,47.00
2018-04-22T13:22:05.362Z,61.20
2018-04-22T13:26:56.866Z,67.90
2018-04-22T13:31:49.138Z,75.50
2018-04-22T13:36:40.650Z,75.20
2018-04-22T13:41:32.924Z,75.90
2018-04-22T13:46:24.462Z,75.80
2018-04-22T13:51:15.999Z,74.20
2018-04-22T13:56:07.526Z,71.30
2018-04-22T14:00:59.035Z,68.30
2018-04-22T14:05:51.288Z,63.40
2018-04-22T14:10:43.565Z,63.20
2018-04-22T14:15:35.095Z,63.10
2018-04-22T14:20:26.634Z,64.10
2018-04-22T14:25:18.174Z,66.60
2018-04-22T14:30:10.837Z,65.60
2018-04-22T14:35:02.357Z,65.60
2018-04-22T14:39:53.857Z,66.90
2018-04-22T14:45:04.647Z,72.70
2018-04-22T14:49:56.903Z,74.10
2018-04-22T14:54:49.139Z,77.00
2018-04-22T14:59:40.611Z,76.80
2018-04-22T15:04:32.092Z,70.60
2018-04-22T15:09:23.604Z,71.30
2018-04-22T15:14:15.110Z,68.00
2018-04-22T15:19:06.604Z,66.30
2018-04-22T15:23:58.118Z,70.20
2018-04-22T15:28:49.626Z,72.70
2018-04-22T15:33:41.146Z,71.80
2018-04-22T15:38:32.672Z,73.60
2018-04-22T15:43:24.160Z,79.00
2018-04-22T15:48:15.662Z,74.20
2018-04-22T15:53:07.153Z,72.90
2018-04-22T15:57:59.414Z,74.50
2018-04-22T16:02:51.654Z,74.80
2018-04-22T16:07:43.886Z,77.70
2018-04-22T16:12:35.367Z,77.70
2018-04-22T16:17:26.851Z,76.60
2018-04-22T16:22:19.196Z,63.00
2018-04-22T16:27:10.705Z,62.70
2018-04-22T16:32:02.265Z,65.40
2018-04-22T16:36:53.751Z,65.90
2018-04-22T16:41:45.311Z,69.20
2018-04-22T16:46:36.821Z,71.10
2018-04-22T16:51:28.422Z,72.40
2018-04-22T16:56:19.963Z,74.40
2018-04-22T17:01:12.224Z,70.50
2018-04-22T17:06:05.531Z,70.60
2018-04-22T17:10:57.065Z,70.50
2018-04-22T17:15:48.617Z,70.00
2018-04-22T17:20:40.121Z,69.80
2018-04-22T17:25:32.007Z,68.60
2018-04-22T17:30:24.298Z,70.40
2018-04-22T17:35:16.547Z,71.40
2018-04-22T17:40:08.784Z,73.70
2018-04-22T17:45:00.286Z,73.50
2018-04-22T17:49:51.769Z,71.40
2018-04-22T17:54:44.002Z,73.20
2018-04-22T17:59:35.591Z,73.20
2018-04-22T18:04:27.145Z,72.70
2018-04-22T18:09:18.729Z,72.80
2018-04-22T18:14:10.274Z,71.50
2018-04-22T18:19:02.365Z,71.20
2018-04-22T18:23:53.880Z,71.50
2018-04-22T18:28:45.496Z,71.90
2018-04-22T18:33:37.025Z,71.80
2018-04-22T18:38:28.546Z,72.20
2018-04-22T18:43:20.077Z,72.60
2018-04-22T18:48:12.440Z,73.60
2018-04-22T18:53:03.935Z,73.50
2018-04-22T18:57:55.448Z,72.30
2018-04-22T19:02:47.698Z,74.40
2018-04-22T19:07:39.198Z,74.70
2018-04-22T19:12:30.673Z,75.40
2018-04-22T19:17:22.191Z,73.40
2018-04-22T19:22:13.726Z,72.70
2018-04-22T19:27:06.203Z,72.40
2018-04-22T19:31:59.002Z,73.50
2018-04-22T19:36:51.341Z,72.00
2018-04-22T19:41:44.476Z,71.90
2018-04-22T19:46:36.813Z,75.10
2018-04-22T19:51:28.313Z,75.10
2018-04-22T19:56:20.563Z,75.70
2018-04-22T20:01:13.181Z,76.70
2018-04-22T20:06:05.592Z,74.60
2018-04-22T20:10:57.160Z,74.50
2018-04-22T20:15:48.711Z,73.50
2018-04-22T20:20:40.318Z,72.70
2018-04-22T20:25:31.791Z,72.30
2018-04-22T20:30:23.309Z,71.90
2018-04-22T20:35:14.812Z,72.60
2018-04-22T20:40:06.405Z,72.30
2018-04-22T20:44:58.819Z,71.90
2018-04-22T20:49:50.405Z,71.80
2018-04-22T20:54:42.761Z,69.80
2018-04-22T20:59:35.038Z,68.70
2018-04-22T21:04:26.660Z,68.60
2018-04-22T21:09:18.162Z,68.40
2018-04-22T21:14:09.662Z,67.20
2018-04-22T21:19:01.211Z,67.90
2018-04-22T21:23:52.761Z,68.70
2018-04-22T21:28:44.368Z,69.60
2018-04-22T21:33:35.858Z,69.90
2018-04-22T21:38:27.401Z,70.90
2018-04-22T21:43:19.019Z,71.80
2018-04-22T21:48:11.302Z,71.30
2018-04-22T21:53:02.824Z,71.20
2018-04-22T21:57:54.339Z,71.10
2018-04-22T22:02:46.555Z,69.40
2018-04-22T22:07:38.090Z,69.20
2018-04-22T22:12:29.606Z,68.60
2018-04-22T22:17:21.130Z,70.90
2018-04-22T22:22:12.634Z,72.30
2018-04-22T22:27:04.865Z,72.10
2018-04-22T22:31:56.377Z,72.10
2018-04-22T22:36:48.143Z,74.90
2018-04-22T22:41:40.391Z,76.40
2018-04-22T22:46:31.909Z,75.60
2018-04-22T22:51:23.409Z,75.80
2018-04-22T22:56:14.927Z,76.60
2018-04-22T23:01:06.422Z,76.30
2018-04-22T23:05:57.953Z,78.90
2018-04-22T23:10:50.411Z,80.60
2018-04-22T23:15:41.945Z,80.70
2018-04-22T23:20:33.436Z,79.20
2018-04-22T23:25:24.963Z,77.20
2018-04-22T23:30:16.442Z,75.90
2018-04-22T23:35:08.025Z,78.00
2018-04-22T23:39:59.520Z,78.50
2018-04-22T23:44:51.039Z,79.40
2018-04-22T23:49:42.546Z,76.30
2018-04-22T23:54:34.043Z,71.90
2018-04-22T23:59:25.585Z,71.70
